sensor_id;sensor_type;location;lat;lon;timestamp;pressure;altitude;pressure_sealevel;temperature;humidity
18527;BME280;9393;42.158;24.748;2023-05-24T00:00:34;99291.94;;;19.23;76.08
18527;BME280;9393;42.158;24.748;2023-05-24T00:03:38;99287.66;;;19.29;75.57
18527;BME280;9393;42.158;24.748;2023-05-24T00:06:42;99284.81;;;19.10;76.65
18527;BME280;9393;42.158;24.748;2023-05-24T00:09:46;99271.19;;;19.00;76.94
18527;BME280;9393;42.158;24.748;2023-05-24T00:12:52;99271.38;;;18.92;76.46
18527;BME280;9393;42.158;24.748;2023-05-24T00:15:56;99276.88;;;18.97;76.07
18527;BME280;9393;42.158;24.748;2023-05-24T00:19:00;99288.06;;;19.06;75.83
18527;BME280;9393;42.158;24.748;2023-05-24T00:22:04;99283.53;;;18.74;77.43
18527;BME280;9393;42.158;24.748;2023-05-24T00:25:08;99278.28;;;18.87;76.63
18527;BME280;9393;42.158;24.748;2023-05-24T00:28:14;99286.03;;;19.01;75.65
18527;BME280;9393;42.158;24.748;2023-05-24T00:31:19;99275.84;;;18.92;75.53
18527;BME280;9393;42.158;24.748;2023-05-24T00:34:23;99282.75;;;18.93;75.80
18527;BME280;9393;42.158;24.748;2023-05-24T00:37:27;99276.84;;;18.78;76.08
18527;BME280;9393;42.158;24.748;2023-05-24T00:40:32;99272.78;;;18.69;76.46
18527;BME280;9393;42.158;24.748;2023-05-24T00:43:37;99270.50;;;18.59;77.05
18527;BME280;9393;42.158;24.748;2023-05-24T00:46:41;99262.41;;;18.67;76.39
18527;BME280;9393;42.158;24.748;2023-05-24T00:49:45;99259.78;;;18.13;78.42
18527;BME280;9393;42.158;24.748;2023-05-24T00:52:50;99254.84;;;18.51;76.75
18527;BME280;9393;42.158;24.748;2023-05-24T00:55:55;99254.34;;;18.34;77.17
18527;BME280;9393;42.158;24.748;2023-05-24T00:59:01;99261.28;;;18.42;76.69
18527;BME280;9393;42.158;24.748;2023-05-24T01:02:05;99246.81;;;18.31;76.99
18527;BME280;9393;42.158;24.748;2023-05-24T01:05:09;99245.56;;;18.21;77.32
18527;BME280;9393;42.158;24.748;2023-05-24T01:08:20;99242.31;;;18.18;76.34
18527;BME280;9393;42.158;24.748;2023-05-24T01:11:32;99244.13;;;18.18;75.62
18527;BME280;9393;42.158;24.748;2023-05-24T01:14:51;99238.69;;;18.20;75.14
18527;BME280;9393;42.158;24.748;2023-05-24T01:18:01;99245.31;;;18.02;75.29
18527;BME280;9393;42.158;24.748;2023-05-24T01:21:15;99238.94;;;17.90;75.96
18527;BME280;9393;42.158;24.748;2023-05-24T01:24:27;99234.00;;;17.74;76.47
18527;BME280;9393;42.158;24.748;2023-05-24T01:27:35;99231.28;;;17.95;75.17
18527;BME280;9393;42.158;24.748;2023-05-24T01:30:40;99231.31;;;18.02;75.19
18527;BME280;9393;42.158;24.748;2023-05-24T01:33:45;99228.84;;;18.00;75.09
18527;BME280;9393;42.158;24.748;2023-05-24T01:36:53;99240.84;;;18.03;75.01
18527;BME280;9393;42.158;24.748;2023-05-24T01:39:57;99232.13;;;18.09;74.74
18527;BME280;9393;42.158;24.748;2023-05-24T01:43:09;99236.31;;;17.90;75.67
18527;BME280;9393;42.158;24.748;2023-05-24T01:46:21;99236.75;;;18.00;75.55
18527;BME280;9393;42.158;24.748;2023-05-24T01:49:30;99230.47;;;18.01;75.31
18527;BME280;9393;42.158;24.748;2023-05-24T01:52:39;99234.91;;;17.94;75.69
18527;BME280;9393;42.158;24.748;2023-05-24T01:55:47;99244.63;;;17.87;75.82
18527;BME280;9393;42.158;24.748;2023-05-24T01:58:53;99244.16;;;17.77;76.15
18527;BME280;9393;42.158;24.748;2023-05-24T02:02:00;99250.34;;;17.97;75.86
18527;BME280;9393;42.158;24.748;2023-05-24T02:05:05;99249.91;;;17.94;75.97
18527;BME280;9393;42.158;24.748;2023-05-24T02:08:09;99252.75;;;17.86;76.58
18527;BME280;9393;42.158;24.748;2023-05-24T02:11:14;99261.44;;;17.86;76.84
18527;BME280;9393;42.158;24.748;2023-05-24T02:14:22;99278.19;;;17.72;77.36
18527;BME280;9393;42.158;24.748;2023-05-24T02:17:26;99276.16;;;17.67;77.88
18527;BME280;9393;42.158;24.748;2023-05-24T02:20:31;99283.13;;;17.75;77.33
18527;BME280;9393;42.158;24.748;2023-05-24T02:23:38;99279.88;;;17.52;78.58
18527;BME280;9393;42.158;24.748;2023-05-24T02:26:42;99284.44;;;17.92;76.63
18527;BME280;9393;42.158;24.748;2023-05-24T02:29:48;99280.09;;;18.19;75.02
18527;BME280;9393;42.158;24.748;2023-05-24T02:32:52;99285.38;;;18.19;75.24
18527;BME280;9393;42.158;24.748;2023-05-24T02:35:56;99295.84;;;17.99;76.01
18527;BME280;9393;42.158;24.748;2023-05-24T02:39:00;99293.31;;;17.85;76.76
18527;BME280;9393;42.158;24.748;2023-05-24T02:42:05;99295.59;;;17.94;76.20
18527;BME280;9393;42.158;24.748;2023-05-24T02:45:11;99297.53;;;17.79;77.39
18527;BME280;9393;42.158;24.748;2023-05-24T02:48:15;99305.50;;;17.86;76.95
18527;BME280;9393;42.158;24.748;2023-05-24T02:51:19;99305.22;;;17.74;77.44
18527;BME280;9393;42.158;24.748;2023-05-24T02:54:23;99304.19;;;17.69;77.83
18527;BME280;9393;42.158;24.748;2023-05-24T02:57:28;99306.06;;;17.53;78.80
18527;BME280;9393;42.158;24.748;2023-05-24T03:00:37;99306.13;;;17.39;79.54
18527;BME280;9393;42.158;24.748;2023-05-24T03:03:42;99302.28;;;17.41;79.44
18527;BME280;9393;42.158;24.748;2023-05-24T03:06:46;99303.72;;;17.16;80.61
18527;BME280;9393;42.158;24.748;2023-05-24T03:09:51;99305.72;;;17.14;80.55
18527;BME280;9393;42.158;24.748;2023-05-24T03:12:55;99304.97;;;17.20;80.76
18527;BME280;9393;42.158;24.748;2023-05-24T03:16:00;99297.47;;;17.45;79.52
18527;BME280;9393;42.158;24.748;2023-05-24T03:19:04;99302.16;;;17.71;78.28
18527;BME280;9393;42.158;24.748;2023-05-24T03:22:11;99299.16;;;17.52;79.45
18527;BME280;9393;42.158;24.748;2023-05-24T03:25:15;99304.16;;;17.20;81.11
18527;BME280;9393;42.158;24.748;2023-05-24T03:28:20;99304.50;;;17.59;79.62
18527;BME280;9393;42.158;24.748;2023-05-24T03:31:26;99298.69;;;18.04;77.90
18527;BME280;9393;42.158;24.748;2023-05-24T03:34:30;99299.06;;;18.42;75.81
18527;BME280;9393;42.158;24.748;2023-05-24T03:37:34;99303.31;;;18.37;75.91
18527;BME280;9393;42.158;24.748;2023-05-24T03:40:38;99297.44;;;18.00;77.42
18527;BME280;9393;42.158;24.748;2023-05-24T03:43:52;99296.81;;;18.39;75.80
18527;BME280;9393;42.158;24.748;2023-05-24T03:46:58;99297.81;;;18.86;73.06
18527;BME280;9393;42.158;24.748;2023-05-24T03:50:04;99300.25;;;19.00;71.32
18527;BME280;9393;42.158;24.748;2023-05-24T03:53:08;99307.19;;;19.14;71.08
18527;BME280;9393;42.158;24.748;2023-05-24T03:56:12;99307.00;;;19.49;69.92
18527;BME280;9393;42.158;24.748;2023-05-24T03:59:17;99304.13;;;19.83;68.88
18527;BME280;9393;42.158;24.748;2023-05-24T04:02:23;99314.88;;;19.95;67.87
18527;BME280;9393;42.158;24.748;2023-05-24T04:05:28;99315.50;;;19.90;66.65
18527;BME280;9393;42.158;24.748;2023-05-24T04:08:32;99314.69;;;20.03;66.60
18527;BME280;9393;42.158;24.748;2023-05-24T04:11:37;99324.03;;;20.05;65.54
18527;BME280;9393;42.158;24.748;2023-05-24T04:14:41;99325.19;;;20.36;65.12
18527;BME280;9393;42.158;24.748;2023-05-24T04:17:46;99317.41;;;20.47;64.25
18527;BME280;9393;42.158;24.748;2023-05-24T04:20:57;99315.53;;;20.54;62.66
18527;BME280;9393;42.158;24.748;2023-05-24T04:24:01;99319.47;;;20.39;63.12
18527;BME280;9393;42.158;24.748;2023-05-24T04:27:05;99321.94;;;20.21;63.26
18527;BME280;9393;42.158;24.748;2023-05-24T04:30:11;99324.78;;;20.32;62.97
18527;BME280;9393;42.158;24.748;2023-05-24T04:33:17;99321.53;;;20.17;62.84
18527;BME280;9393;42.158;24.748;2023-05-24T04:36:21;99315.72;;;19.89;63.52
18527;BME280;9393;42.158;24.748;2023-05-24T04:39:26;99319.31;;;20.27;62.74
18527;BME280;9393;42.158;24.748;2023-05-24T04:42:30;99300.16;;;20.18;62.38
18527;BME280;9393;42.158;24.748;2023-05-24T04:45:34;99301.41;;;20.16;61.06
18527;BME280;9393;42.158;24.748;2023-05-24T04:48:39;99303.56;;;20.77;60.28
18527;BME280;9393;42.158;24.748;2023-05-24T04:51:43;99306.25;;;20.70;59.90
18527;BME280;9393;42.158;24.748;2023-05-24T04:54:47;99316.53;;;20.91;59.52
18527;BME280;9393;42.158;24.748;2023-05-24T04:57:52;99307.38;;;20.87;59.67
18527;BME280;9393;42.158;24.748;2023-05-24T05:00:56;99311.94;;;21.11;59.00
18527;BME280;9393;42.158;24.748;2023-05-24T05:04:03;99316.84;;;21.08;59.43
18527;BME280;9393;42.158;24.748;2023-05-24T05:07:07;99320.69;;;21.43;58.73
18527;BME280;9393;42.158;24.748;2023-05-24T05:10:11;99329.59;;;21.74;57.99
18527;BME280;9393;42.158;24.748;2023-05-24T05:13:15;99334.91;;;21.98;57.52
18527;BME280;9393;42.158;24.748;2023-05-24T05:16:19;99345.81;;;22.08;57.34
18527;BME280;9393;42.158;24.748;2023-05-24T05:19:25;99343.44;;;22.00;57.82
18527;BME280;9393;42.158;24.748;2023-05-24T05:22:29;99340.81;;;22.19;57.60
18527;BME280;9393;42.158;24.748;2023-05-24T05:25:33;99337.38;;;22.48;56.55
18527;BME280;9393;42.158;24.748;2023-05-24T05:28:37;99344.16;;;22.62;56.98
18527;BME280;9393;42.158;24.748;2023-05-24T05:31:41;99346.34;;;22.53;57.67
18527;BME280;9393;42.158;24.748;2023-05-24T05:34:47;99353.41;;;22.59;58.08
18527;BME280;9393;42.158;24.748;2023-05-24T05:37:51;99345.56;;;23.12;56.57
18527;BME280;9393;42.158;24.748;2023-05-24T05:40:55;99340.09;;;23.07;56.08
18527;BME280;9393;42.158;24.748;2023-05-24T05:43:59;99338.97;;;23.15;55.30
18527;BME280;9393;42.158;24.748;2023-05-24T05:47:03;99345.22;;;23.21;55.28
18527;BME280;9393;42.158;24.748;2023-05-24T05:50:10;99340.00;;;23.14;54.85
18527;BME280;9393;42.158;24.748;2023-05-24T05:53:15;99346.72;;;23.17;55.69
18527;BME280;9393;42.158;24.748;2023-05-24T05:56:19;99339.53;;;23.17;55.96
18527;BME280;9393;42.158;24.748;2023-05-24T05:59:23;99346.13;;;23.44;55.90
18527;BME280;9393;42.158;24.748;2023-05-24T06:02:27;99351.94;;;23.99;54.39
18527;BME280;9393;42.158;24.748;2023-05-24T06:05:32;99368.72;;;23.88;55.32
18527;BME280;9393;42.158;24.748;2023-05-24T06:08:37;99365.59;;;23.80;55.07
18527;BME280;9393;42.158;24.748;2023-05-24T06:11:42;99372.28;;;23.47;55.87
18527;BME280;9393;42.158;24.748;2023-05-24T06:14:46;99361.06;;;23.80;55.20
18527;BME280;9393;42.158;24.748;2023-05-24T06:17:51;99359.69;;;23.78;54.50
18527;BME280;9393;42.158;24.748;2023-05-24T06:20:58;99363.16;;;24.25;52.96
18527;BME280;9393;42.158;24.748;2023-05-24T06:24:02;99363.50;;;23.93;52.98
18527;BME280;9393;42.158;24.748;2023-05-24T06:27:06;99368.47;;;24.25;52.48
18527;BME280;9393;42.158;24.748;2023-05-24T06:30:11;99375.94;;;24.62;52.59
18527;BME280;9393;42.158;24.748;2023-05-24T06:33:15;99381.75;;;24.48;52.77
18527;BME280;9393;42.158;24.748;2023-05-24T06:36:21;99376.66;;;24.58;54.16
18527;BME280;9393;42.158;24.748;2023-05-24T06:39:25;99375.19;;;25.35;52.16
18527;BME280;9393;42.158;24.748;2023-05-24T06:42:29;99372.44;;;25.30;52.39
18527;BME280;9393;42.158;24.748;2023-05-24T06:45:33;99376.44;;;24.99;53.16
18527;BME280;9393;42.158;24.748;2023-05-24T06:48:38;99372.47;;;25.63;51.79
18527;BME280;9393;42.158;24.748;2023-05-24T06:51:44;99372.31;;;25.08;52.79
18527;BME280;9393;42.158;24.748;2023-05-24T06:54:51;99375.72;;;25.82;51.15
18527;BME280;9393;42.158;24.748;2023-05-24T06:57:55;99377.09;;;25.68;51.97
18527;BME280;9393;42.158;24.748;2023-05-24T07:00:59;99367.84;;;25.76;51.58
18527;BME280;9393;42.158;24.748;2023-05-24T07:04:04;99368.63;;;26.09;50.48
18527;BME280;9393;42.158;24.748;2023-05-24T07:07:09;99365.50;;;25.96;50.13
18527;BME280;9393;42.158;24.748;2023-05-24T07:10:15;99363.03;;;26.11;50.66
18527;BME280;9393;42.158;24.748;2023-05-24T07:13:19;99352.63;;;26.31;50.05
18527;BME280;9393;42.158;24.748;2023-05-24T07:16:23;99345.78;;;26.19;49.93
18527;BME280;9393;42.158;24.748;2023-05-24T07:19:27;99342.56;;;26.38;48.63
18527;BME280;9393;42.158;24.748;2023-05-24T07:22:32;99351.00;;;26.74;48.43
18527;BME280;9393;42.158;24.748;2023-05-24T07:25:37;99351.81;;;26.74;47.91
18527;BME280;9393;42.158;24.748;2023-05-24T07:28:41;99349.53;;;26.61;46.46
18527;BME280;9393;42.158;24.748;2023-05-24T07:31:45;99352.19;;;26.39;46.49
18527;BME280;9393;42.158;24.748;2023-05-24T07:34:49;99355.69;;;26.61;46.60
18527;BME280;9393;42.158;24.748;2023-05-24T07:37:55;99354.59;;;26.62;46.72
18527;BME280;9393;42.158;24.748;2023-05-24T07:41:00;99353.56;;;26.63;47.08
18527;BME280;9393;42.158;24.748;2023-05-24T07:44:04;99359.75;;;27.18;46.49
18527;BME280;9393;42.158;24.748;2023-05-24T07:47:08;99355.59;;;27.58;46.11
18527;BME280;9393;42.158;24.748;2023-05-24T07:50:13;99346.16;;;27.51;44.80
18527;BME280;9393;42.158;24.748;2023-05-24T07:53:18;99352.13;;;27.63;43.79
18527;BME280;9393;42.158;24.748;2023-05-24T07:56:24;99353.00;;;27.42;44.09
18527;BME280;9393;42.158;24.748;2023-05-24T07:59:28;99342.16;;;27.53;43.40
18527;BME280;9393;42.158;24.748;2023-05-24T08:02:32;99350.97;;;27.49;43.47
18527;BME280;9393;42.158;24.748;2023-05-24T08:05:36;99356.50;;;27.74;43.16
18527;BME280;9393;42.158;24.748;2023-05-24T08:08:42;99352.44;;;27.67;43.25
18527;BME280;9393;42.158;24.748;2023-05-24T08:11:47;99356.53;;;27.79;42.23
18527;BME280;9393;42.158;24.748;2023-05-24T08:14:51;99339.75;;;27.94;42.54
18527;BME280;9393;42.158;24.748;2023-05-24T08:17:55;99338.34;;;27.81;42.77
18527;BME280;9393;42.158;24.748;2023-05-24T08:20:59;99344.72;;;28.17;43.01
18527;BME280;9393;42.158;24.748;2023-05-24T08:24:05;99342.44;;;28.46;42.32
18527;BME280;9393;42.158;24.748;2023-05-24T08:27:10;99351.16;;;28.73;42.29
18527;BME280;9393;42.158;24.748;2023-05-24T08:30:15;99347.69;;;28.78;42.05
18527;BME280;9393;42.158;24.748;2023-05-24T08:33:19;99346.38;;;29.21;40.89
18527;BME280;9393;42.158;24.748;2023-05-24T08:36:24;99339.47;;;29.30;39.82
18527;BME280;9393;42.158;24.748;2023-05-24T08:39:30;99344.28;;;29.33;39.65
18527;BME280;9393;42.158;24.748;2023-05-24T08:42:37;99352.63;;;29.46;38.42
18527;BME280;9393;42.158;24.748;2023-05-24T08:45:43;99348.31;;;29.35;38.77
18527;BME280;9393;42.158;24.748;2023-05-24T08:48:48;99347.88;;;28.61;40.27
18527;BME280;9393;42.158;24.748;2023-05-24T08:51:54;99349.00;;;28.70;39.79
18527;BME280;9393;42.158;24.748;2023-05-24T08:55:00;99349.00;;;28.70;40.04
18527;BME280;9393;42.158;24.748;2023-05-24T08:58:05;99354.84;;;28.57;41.37
18527;BME280;9393;42.158;24.748;2023-05-24T09:01:10;99340.19;;;29.00;39.87
18527;BME280;9393;42.158;24.748;2023-05-24T09:04:14;99344.25;;;29.13;39.57
18527;BME280;9393;42.158;24.748;2023-05-24T09:07:20;99343.47;;;29.32;38.61
18527;BME280;9393;42.158;24.748;2023-05-24T09:10:27;99343.19;;;29.24;38.63
18527;BME280;9393;42.158;24.748;2023-05-24T09:13:53;99350.44;;;29.69;38.23
18527;BME280;9393;42.158;24.748;2023-05-24T09:16:59;99344.00;;;29.65;37.57
18527;BME280;9393;42.158;24.748;2023-05-24T09:20:05;99343.72;;;29.91;37.63
18527;BME280;9393;42.158;24.748;2023-05-24T09:23:13;99349.63;;;29.98;35.65
18527;BME280;9393;42.158;24.748;2023-05-24T09:26:19;99346.13;;;29.73;34.16
18527;BME280;9393;42.158;24.748;2023-05-24T09:29:23;99343.94;;;28.89;34.79
18527;BME280;9393;42.158;24.748;2023-05-24T09:32:28;99339.06;;;28.76;35.92
18527;BME280;9393;42.158;24.748;2023-05-24T09:35:33;99336.72;;;29.04;34.73
18527;BME280;9393;42.158;24.748;2023-05-24T09:38:38;99331.09;;;29.51;34.78
18527;BME280;9393;42.158;24.748;2023-05-24T09:41:51;99331.91;;;29.82;33.96
18527;BME280;9393;42.158;24.748;2023-05-24T09:45:01;99324.66;;;29.63;34.65
18527;BME280;9393;42.158;24.748;2023-05-24T09:48:10;99328.63;;;30.05;33.35
18527;BME280;9393;42.158;24.748;2023-05-24T09:51:14;99334.44;;;30.33;34.30
18527;BME280;9393;42.158;24.748;2023-05-24T09:54:20;99335.09;;;29.89;34.23
18527;BME280;9393;42.158;24.748;2023-05-24T09:57:26;99325.94;;;30.05;33.79
18527;BME280;9393;42.158;24.748;2023-05-24T10:00:33;99333.75;;;29.97;33.50
18527;BME280;9393;42.158;24.748;2023-05-24T10:03:38;99322.69;;;30.08;33.90
18527;BME280;9393;42.158;24.748;2023-05-24T10:06:43;99325.63;;;30.81;33.06
18527;BME280;9393;42.158;24.748;2023-05-24T10:09:49;99320.19;;;30.86;32.67
18527;BME280;9393;42.158;24.748;2023-05-24T10:12:55;99325.78;;;30.51;32.88
18527;BME280;9393;42.158;24.748;2023-05-24T10:16:00;99321.34;;;30.11;32.63
18527;BME280;9393;42.158;24.748;2023-05-24T10:19:04;99319.81;;;30.59;32.43
18527;BME280;9393;42.158;24.748;2023-05-24T10:22:09;99323.91;;;30.95;32.49
18527;BME280;9393;42.158;24.748;2023-05-24T10:25:17;99313.03;;;30.67;31.10
18527;BME280;9393;42.158;24.748;2023-05-24T10:28:25;99306.28;;;30.69;31.60
18527;BME280;9393;42.158;24.748;2023-05-24T10:31:31;99303.97;;;31.01;31.00
18527;BME280;9393;42.158;24.748;2023-05-24T10:34:37;99300.34;;;30.18;31.23
18527;BME280;9393;42.158;24.748;2023-05-24T10:37:42;99302.97;;;30.33;31.27
18527;BME280;9393;42.158;24.748;2023-05-24T10:40:46;99303.03;;;30.72;30.78
18527;BME280;9393;42.158;24.748;2023-05-24T10:43:52;99298.94;;;30.85;31.19
18527;BME280;9393;42.158;24.748;2023-05-24T10:47:11;99289.88;;;30.71;30.60
18527;BME280;9393;42.158;24.748;2023-05-24T10:50:17;99285.31;;;30.71;30.34
18527;BME280;9393;42.158;24.748;2023-05-24T10:53:22;99276.06;;;30.82;32.55
18527;BME280;9393;42.158;24.748;2023-05-24T10:56:29;99273.19;;;31.08;30.62
18527;BME280;9393;42.158;24.748;2023-05-24T10:59:35;99267.19;;;31.44;29.95
18527;BME280;9393;42.158;24.748;2023-05-24T11:02:41;99255.88;;;31.19;29.31
18527;BME280;9393;42.158;24.748;2023-05-24T11:05:49;99261.75;;;30.38;30.32
18527;BME280;9393;42.158;24.748;2023-05-24T11:08:59;99261.28;;;30.41;30.78
18527;BME280;9393;42.158;24.748;2023-05-24T11:12:06;99262.38;;;30.25;30.27
18527;BME280;9393;42.158;24.748;2023-05-24T11:15:22;99261.69;;;30.58;29.83
18527;BME280;9393;42.158;24.748;2023-05-24T11:18:26;99268.69;;;31.32;29.16
18527;BME280;9393;42.158;24.748;2023-05-24T11:21:31;99267.47;;;31.19;29.40
18527;BME280;9393;42.158;24.748;2023-05-24T11:24:35;99261.47;;;31.56;29.14
18527;BME280;9393;42.158;24.748;2023-05-24T11:27:41;99252.56;;;31.55;29.58
18527;BME280;9393;42.158;24.748;2023-05-24T11:30:48;99253.13;;;31.81;29.16
18527;BME280;9393;42.158;24.748;2023-05-24T11:33:52;99251.47;;;31.62;28.75
18527;BME280;9393;42.158;24.748;2023-05-24T11:36:57;99257.47;;;31.53;29.14
18527;BME280;9393;42.158;24.748;2023-05-24T11:40:02;99259.31;;;31.58;29.25
18527;BME280;9393;42.158;24.748;2023-05-24T11:43:07;99251.97;;;31.01;29.85
18527;BME280;9393;42.158;24.748;2023-05-24T11:46:14;99246.34;;;30.10;31.08
18527;BME280;9393;42.158;24.748;2023-05-24T11:49:20;99250.38;;;30.02;30.32
18527;BME280;9393;42.158;24.748;2023-05-24T11:52:25;99246.59;;;30.08;30.91
18527;BME280;9393;42.158;24.748;2023-05-24T11:55:29;99246.63;;;30.57;30.91
18527;BME280;9393;42.158;24.748;2023-05-24T11:58:42;99244.59;;;30.78;31.87
18527;BME280;9393;42.158;24.748;2023-05-24T12:01:50;99236.28;;;30.25;33.86
18527;BME280;9393;42.158;24.748;2023-05-24T12:05:05;99233.91;;;30.14;33.88
18527;BME280;9393;42.158;24.748;2023-05-24T12:08:11;99220.75;;;30.12;34.48
18527;BME280;9393;42.158;24.748;2023-05-24T12:11:17;99219.25;;;30.40;34.18
18527;BME280;9393;42.158;24.748;2023-05-24T12:14:23;99198.22;;;30.86;33.87
18527;BME280;9393;42.158;24.748;2023-05-24T12:17:30;99209.31;;;30.40;32.56
18527;BME280;9393;42.158;24.748;2023-05-24T12:20:34;99204.81;;;30.26;33.12
18527;BME280;9393;42.158;24.748;2023-05-24T12:23:41;99202.84;;;30.80;31.63
18527;BME280;9393;42.158;24.748;2023-05-24T12:26:46;99201.72;;;30.52;31.06
18527;BME280;9393;42.158;24.748;2023-05-24T12:29:50;99193.97;;;30.80;32.35
18527;BME280;9393;42.158;24.748;2023-05-24T12:32:56;99201.28;;;30.74;31.94
18527;BME280;9393;42.158;24.748;2023-05-24T12:36:01;99198.06;;;31.35;31.39
18527;BME280;9393;42.158;24.748;2023-05-24T12:39:22;99201.03;;;30.71;31.05
18527;BME280;9393;42.158;24.748;2023-05-24T12:42:26;99201.06;;;30.22;31.60
18527;BME280;9393;42.158;24.748;2023-05-24T12:45:30;99203.00;;;30.11;31.95
18527;BME280;9393;42.158;24.748;2023-05-24T12:48:36;99200.44;;;30.35;32.22
18527;BME280;9393;42.158;24.748;2023-05-24T12:51:40;99200.94;;;30.47;31.55
18527;BME280;9393;42.158;24.748;2023-05-24T12:54:44;99191.75;;;30.53;30.77
18527;BME280;9393;42.158;24.748;2023-05-24T12:57:48;99205.78;;;31.18;31.30
18527;BME280;9393;42.158;24.748;2023-05-24T13:00:55;99199.16;;;31.34;30.41
18527;BME280;9393;42.158;24.748;2023-05-24T13:04:00;99204.94;;;31.75;29.76
18527;BME280;9393;42.158;24.748;2023-05-24T13:07:04;99203.28;;;31.97;28.77
18527;BME280;9393;42.158;24.748;2023-05-24T13:10:09;99203.88;;;31.47;29.70
18527;BME280;9393;42.158;24.748;2023-05-24T13:13:13;99193.50;;;31.59;29.90
18527;BME280;9393;42.158;24.748;2023-05-24T13:16:17;99194.16;;;30.88;30.01
18527;BME280;9393;42.158;24.748;2023-05-24T13:19:23;99196.13;;;30.44;30.68
18527;BME280;9393;42.158;24.748;2023-05-24T13:22:27;99210.78;;;30.18;31.58
18527;BME280;9393;42.158;24.748;2023-05-24T13:25:31;99205.56;;;29.72;32.09
18527;BME280;9393;42.158;24.748;2023-05-24T13:28:35;99225.00;;;29.14;34.89
18527;BME280;9393;42.158;24.748;2023-05-24T13:31:55;99224.16;;;27.80;39.59
18527;BME280;9393;42.158;24.748;2023-05-24T13:35:00;99226.78;;;27.28;41.71
18527;BME280;9393;42.158;24.748;2023-05-24T13:38:08;99220.44;;;26.71;42.22
18527;BME280;9393;42.158;24.748;2023-05-24T13:41:12;99229.47;;;26.16;46.60
18527;BME280;9393;42.158;24.748;2023-05-24T13:44:16;99238.78;;;25.70;51.68
18527;BME280;9393;42.158;24.748;2023-05-24T13:47:20;99222.59;;;25.60;53.84
18527;BME280;9393;42.158;24.748;2023-05-24T13:50:42;99211.28;;;25.53;47.94
18527;BME280;9393;42.158;24.748;2023-05-24T13:53:47;99211.03;;;25.38;47.66
18527;BME280;9393;42.158;24.748;2023-05-24T13:56:51;99198.84;;;25.25;45.60
18527;BME280;9393;42.158;24.748;2023-05-24T13:59:58;99203.16;;;25.26;46.10
18527;BME280;9393;42.158;24.748;2023-05-24T14:03:06;99191.56;;;25.37;47.21
18527;BME280;9393;42.158;24.748;2023-05-24T14:06:11;99189.69;;;25.38;46.04
18527;BME280;9393;42.158;24.748;2023-05-24T14:09:16;99186.59;;;25.62;43.60
18527;BME280;9393;42.158;24.748;2023-05-24T14:12:22;99194.41;;;25.91;42.00
18527;BME280;9393;42.158;24.748;2023-05-24T14:15:26;99206.34;;;26.05;41.32
18527;BME280;9393;42.158;24.748;2023-05-24T14:18:31;99210.75;;;26.16;44.75
18527;BME280;9393;42.158;24.748;2023-05-24T14:21:36;99204.78;;;26.31;45.48
18527;BME280;9393;42.158;24.748;2023-05-24T14:24:42;99206.28;;;26.48;46.35
18527;BME280;9393;42.158;24.748;2023-05-24T14:27:46;99209.56;;;26.55;46.20
18527;BME280;9393;42.158;24.748;2023-05-24T14:30:50;99211.19;;;26.56;44.85
18527;BME280;9393;42.158;24.748;2023-05-24T14:33:54;99214.59;;;26.47;43.00
18527;BME280;9393;42.158;24.748;2023-05-24T14:37:00;99217.06;;;26.53;41.44
18527;BME280;9393;42.158;24.748;2023-05-24T14:40:05;99217.94;;;26.91;41.53
18527;BME280;9393;42.158;24.748;2023-05-24T14:43:09;99222.69;;;27.47;37.98
18527;BME280;9393;42.158;24.748;2023-05-24T14:46:13;99219.50;;;27.19;43.51
18527;BME280;9393;42.158;24.748;2023-05-24T14:49:17;99224.09;;;27.23;45.98
18527;BME280;9393;42.158;24.748;2023-05-24T14:52:23;99219.38;;;27.40;45.92
18527;BME280;9393;42.158;24.748;2023-05-24T14:55:27;99218.34;;;26.78;48.58
18527;BME280;9393;42.158;24.748;2023-05-24T14:58:31;99233.06;;;26.80;49.57
18527;BME280;9393;42.158;24.748;2023-05-24T15:01:35;99219.00;;;26.63;50.27
18527;BME280;9393;42.158;24.748;2023-05-24T15:04:39;99221.53;;;26.48;49.88
18527;BME280;9393;42.158;24.748;2023-05-24T15:07:45;99217.25;;;26.47;48.97
18527;BME280;9393;42.158;24.748;2023-05-24T15:10:49;99219.22;;;26.30;47.73
18527;BME280;9393;42.158;24.748;2023-05-24T15:13:53;99217.34;;;25.87;48.79
18527;BME280;9393;42.158;24.748;2023-05-24T15:17:00;99219.47;;;26.28;48.30
18527;BME280;9393;42.158;24.748;2023-05-24T15:20:05;99208.72;;;26.01;48.93
18527;BME280;9393;42.158;24.748;2023-05-24T15:23:11;99217.66;;;26.34;48.31
18527;BME280;9393;42.158;24.748;2023-05-24T15:26:15;99216.59;;;26.61;48.41
18527;BME280;9393;42.158;24.748;2023-05-24T15:29:19;99219.44;;;26.50;48.07
18527;BME280;9393;42.158;24.748;2023-05-24T15:32:23;99216.03;;;26.33;48.64
18527;BME280;9393;42.158;24.748;2023-05-24T15:35:27;99216.25;;;26.53;48.65
18527;BME280;9393;42.158;24.748;2023-05-24T15:38:32;99221.03;;;26.78;49.11
18527;BME280;9393;42.158;24.748;2023-05-24T15:41:37;99221.47;;;26.70;49.05
18527;BME280;9393;42.158;24.748;2023-05-24T15:44:41;99229.47;;;26.91;48.51
18527;BME280;9393;42.158;24.748;2023-05-24T15:47:45;99232.09;;;26.33;50.01
18527;BME280;9393;42.158;24.748;2023-05-24T15:50:49;99244.38;;;25.90;50.85
18527;BME280;9393;42.158;24.748;2023-05-24T15:54:15;99246.69;;;25.82;51.42
18527;BME280;9393;42.158;24.748;2023-05-24T15:57:19;99255.66;;;25.76;52.13
18527;BME280;9393;42.158;24.748;2023-05-24T16:00:23;99257.53;;;25.97;51.01
18527;BME280;9393;42.158;24.748;2023-05-24T16:03:27;99255.34;;;25.72;51.80
18527;BME280;9393;42.158;24.748;2023-05-24T16:06:32;99270.22;;;26.06;50.63
18527;BME280;9393;42.158;24.748;2023-05-24T16:09:37;99268.25;;;25.58;51.14
18527;BME280;9393;42.158;24.748;2023-05-24T16:12:41;99279.56;;;25.16;52.20
18527;BME280;9393;42.158;24.748;2023-05-24T16:15:45;99277.78;;;25.04;51.36
18527;BME280;9393;42.158;24.748;2023-05-24T16:18:53;99277.41;;;25.12;51.46
18527;BME280;9393;42.158;24.748;2023-05-24T16:21:57;99281.38;;;24.82;51.87